Time;durP1;ratioP1;P1;durP2;ratioP2;P2;SDS_P1;SDS_P2;PMS_P1;PMS_P2;Temp;Humidity;BMP_temperature;BMP_pressure;BME280_temperature;BME280_humidity;BME280_pressure;Samples;Min_cycle;Max_cycle;Signal;HPM_P1;HPM_P2
2022/06/27 00:02:44;;;;;;;2.88;0.50;;;;;;;22.71;45.83;101461.38;16142497;19;129395;-58
2022/06/27 00:08:06;;;;;;;0.95;0.40;;;;;;;22.72;45.92;101471.44;16142063;19;129322;-58
2022/06/27 00:13:28;;;;;;;2.75;0.40;;;;;;;22.72;45.75;101471.44;16140509;19;129340;-58
2022/06/27 00:18:50;;;;;;;4.45;0.80;;;;;;;22.72;45.64;101468.66;16144008;19;129801;-59
2022/06/27 00:24:12;;;;;;;0.88;0.50;;;;;;;22.72;45.60;101468.66;16142664;19;129118;-59
2022/06/27 00:29:33;;;;;;;0.47;0.40;;;;;;;22.71;45.46;101461.38;16143496;19;130587;-59
2022/06/27 00:34:55;;;;;;;0.80;0.60;;;;;;;22.71;45.71;101452.16;16139384;19;129297;-57
2022/06/27 00:40:17;;;;;;;3.28;0.60;;;;;;;22.71;45.65;101452.16;16142547;19;129234;-58
2022/06/27 00:45:39;;;;;;;2.33;0.60;;;;;;;22.70;45.60;101456.06;16142077;19;130206;-58
2022/06/27 00:51:01;;;;;;;0.82;0.50;;;;;;;22.69;45.79;101466.38;16141649;19;130797;-58
2022/06/27 00:56:23;;;;;;;0.73;0.35;;;;;;;22.68;45.36;101470.25;16137797;19;129402;-59
2022/06/27 01:01:45;;;;;;;1.83;0.80;;;;;;;22.67;45.64;101463.00;16140502;19;130253;-58
2022/06/27 01:07:14;;;;;;;0.93;0.55;;;;;;;22.66;45.58;101472.47;16142772;19;129564;-57
2022/06/27 01:12:39;;;;;;;1.20;0.40;;;;;;;22.68;45.46;101469.44;16142205;19;129677;-57
2022/06/27 01:18:02;;;;;;;2.88;0.60;;;;;;;22.66;45.36;101461.31;16137895;19;129996;-58
2022/06/27 01:23:24;;;;;;;1.60;0.60;;;;;;;22.66;45.92;101466.88;16142598;19;129373;-56
2022/06/27 01:28:46;;;;;;;1.00;0.40;;;;;;;22.66;45.54;101460.47;16136768;19;130640;-56
2022/06/27 01:34:08;;;;;;;2.47;0.60;;;;;;;22.65;45.59;101459.63;16178343;19;129260;-59
2022/06/27 01:39:30;;;;;;;1.00;0.60;;;;;;;22.65;45.57;101451.25;16219461;19;129412;-58
2022/06/27 01:44:52;;;;;;;0.90;0.50;;;;;;;22.64;45.69;101452.38;16220307;19;128451;-54
2022/06/27 01:50:17;;;;;;;2.03;0.40;;;;;;;22.65;45.57;101439.28;16217290;19;129288;-59
2022/06/27 01:55:39;;;;;;;3.50;0.57;;;;;;;22.65;45.48;101434.53;16217282;19;129190;-59
2022/06/27 02:01:03;;;;;;;4.07;0.32;;;;;;;22.64;45.40;101430.06;16219034;19;129679;-58
2022/06/27 02:06:26;;;;;;;0.63;0.30;;;;;;;22.63;45.33;101422.81;16212760;19;128383;-57
2022/06/27 02:11:51;;;;;;;4.20;0.63;;;;;;;22.63;45.57;101425.59;16213589;19;129298;-59
2022/06/27 02:17:15;;;;;;;0.68;0.40;;;;;;;22.61;45.79;101425.00;16213773;19;128987;-58
2022/06/27 02:22:36;;;;;;;2.83;0.55;;;;;;;22.62;45.52;101423.91;16217081;19;129286;-57
2022/06/27 02:27:58;;;;;;;2.95;0.50;;;;;;;22.60;45.46;101406.59;16217121;19;129500;-59
2022/06/27 02:33:20;;;;;;;1.25;0.45;;;;;;;22.61;45.30;101407.41;16213315;19;128644;-59
2022/06/27 02:38:44;;;;;;;1.00;0.60;;;;;;;22.61;45.52;101411.06;16212514;19;130292;-58
2022/06/27 02:44:11;;;;;;;1.25;0.40;;;;;;;22.59;45.35;101394.56;16210220;19;128312;-57
2022/06/27 02:49:33;;;;;;;1.33;0.70;;;;;;;22.58;45.77;101392.06;16200830;19;129171;-57
2022/06/27 02:55:03;;;;;;;0.98;0.47;;;;;;;22.59;45.44;101393.75;16201917;19;129151;-59
2022/06/27 03:00:27;;;;;;;1.27;0.40;;;;;;;22.58;45.42;101383.69;16211556;19;128976;-59
2022/06/27 03:05:56;;;;;;;3.67;0.60;;;;;;;22.59;45.20;101393.75;16212416;19;128325;-58
2022/06/27 03:11:21;;;;;;;0.82;0.50;;;;;;;22.57;45.49;101393.16;16216135;19;128582;-59
2022/06/27 03:16:43;;;;;;;0.82;0.50;;;;;;;22.54;45.21;101397.34;16215105;19;130911;-58
2022/06/27 03:22:05;;;;;;;0.93;0.50;;;;;;;22.54;45.51;101390.91;16216260;19;128502;-59
2022/06/27 03:27:27;;;;;;;0.50;0.38;;;;;;;22.54;45.36;101402.91;16218321;19;128560;-58
2022/06/27 03:32:48;;;;;;;0.40;0.32;;;;;;;22.53;45.30;101405.94;16214940;19;128792;-59
2022/06/27 03:38:12;;;;;;;0.73;0.50;;;;;;;22.55;45.40;101420.47;16209865;19;128852;-59
2022/06/27 03:43:33;;;;;;;1.08;0.50;;;;;;;22.52;45.48;101426.59;16213924;19;128782;-59
2022/06/27 03:54:35;;;;;;;1.05;0.50;;;;;;;22.51;45.28;101392.28;16209619;19;129044;-59
2022/06/27 03:59:57;;;;;;;1.17;0.52;;;;;;;22.51;45.78;101385.88;16144543;19;128914;-59
2022/06/27 04:05:19;;;;;;;1.20;0.40;;;;;;;22.50;45.36;101373.03;16159214;19;130111;-59
2022/06/27 04:10:41;;;;;;;1.35;0.73;;;;;;;22.50;45.43;101345.16;16164731;19;129958;-59
2022/06/27 04:16:03;;;;;;;1.65;0.70;;;;;;;22.50;45.32;101356.31;16155233;19;129414;-58
2022/06/27 04:21:25;;;;;;;0.65;0.40;;;;;;;22.49;45.54;101340.66;16143924;19;129764;-58
2022/06/27 04:26:47;;;;;;;1.90;0.50;;;;;;;22.48;45.46;101309.16;16141679;19;129683;-58
2022/06/27 04:32:09;;;;;;;0.50;0.30;;;;;;;22.48;45.35;101330.63;16143435;19;129165;-58
2022/06/27 04:37:31;;;;;;;0.70;0.50;;;;;;;22.48;45.50;101330.63;16139018;19;128853;-58
2022/06/27 04:42:53;;;;;;;0.50;0.40;;;;;;;22.47;45.45;101340.91;16142236;19;129595;-55
2022/06/27 04:48:15;;;;;;;0.98;0.45;;;;;;;22.47;45.47;101351.25;16143255;19;129831;-58
2022/06/27 04:53:38;;;;;;;1.40;0.40;;;;;;;22.45;45.41;101354.31;16141855;19;129515;-57
2022/06/27 04:59:00;;;;;;;1.23;0.45;;;;;;;22.46;45.45;101352.34;16135546;19;129456;-58
2022/06/27 05:04:23;;;;;;;0.45;0.40;;;;;;;22.47;45.33;101379.94;16140729;19;130082;-58
2022/06/27 05:09:45;;;;;;;0.65;0.40;;;;;;;22.46;45.13;101363.50;16137174;19;129321;-59
2022/06/27 05:15:07;;;;;;;0.52;0.50;;;;;;;22.44;45.67;101364.59;16139266;19;129454;-59
2022/06/27 05:20:30;;;;;;;0.73;0.40;;;;;;;22.44;45.53;101386.91;16139800;19;129277;-59
2022/06/27 05:25:52;;;;;;;0.60;0.40;;;;;;;22.43;45.27;101390.78;16140210;19;129819;-58
2022/06/27 05:31:14;;;;;;;0.73;0.35;;;;;;;22.43;45.20;101399.16;16141484;19;129547;-58
2022/06/27 05:36:37;;;;;;;0.63;0.40;;;;;;;22.44;45.13;101405.59;16134183;19;129882;-58
2022/06/27 05:41:58;;;;;;;0.85;0.50;;;;;;;22.43;45.27;101385.22;16140968;19;129320;-59
2022/06/27 05:47:21;;;;;;;3.25;0.60;;;;;;;22.43;45.47;101398.31;16139740;19;129462;-59
2022/06/27 05:52:43;;;;;;;9.48;1.80;;;;;;;22.42;45.51;101419.75;16138903;19;129832;-59
2022/06/27 05:58:07;;;;;;;5.55;3.53;;;;;;;22.40;45.44;101446.22;16134190;19;131278;-57
2022/06/27 06:03:29;;;;;;;11.70;4.18;;;;;;;22.38;45.57;101471.59;16139900;19;129697;-58
2022/06/27 06:08:53;;;;;;;9.35;4.35;;;;;;;22.36;45.86;101475.72;16138416;19;129500;-56
2022/06/27 06:14:18;;;;;;;11.80;4.68;;;;;;;22.35;45.69;101485.16;16138787;19;129862;-59
2022/06/27 06:19:39;;;;;;;9.00;4.32;;;;;;;22.33;45.90;101479.88;16133183;19;129284;-59
2022/06/27 06:25:02;;;;;;;8.75;4.00;;;;;;;22.31;46.11;101448.63;16134211;19;130318;-57
2022/06/27 06:30:24;;;;;;;7.35;4.57;;;;;;;22.31;46.32;101445.00;16135626;19;130039;-56
2022/06/27 06:35:46;;;;;;;9.35;4.75;;;;;;;22.29;46.13;101434.09;16142266;19;129576;-58
2022/06/27 06:41:07;;;;;;;12.65;4.50;;;;;;;22.30;46.06;101421.84;16146004;19;132795;-58
2022/06/27 06:46:30;;;;;;;9.77;4.93;;;;;;;22.30;46.33;101399.53;16144346;19;129440;-56
2022/06/27 06:51:52;;;;;;;9.70;4.38;;;;;;;22.30;46.20;101409.88;16147415;19;129771;-55
2022/06/27 06:57:14;;;;;;;7.43;4.30;;;;;;;22.27;46.39;101402.88;16143679;19;130669;-52
2022/06/27 07:02:36;;;;;;;7.95;4.53;;;;;;;22.26;45.87;101402.00;16142686;19;129489;-59
2022/06/27 07:08:00;;;;;;;13.48;5.00;;;;;;;22.28;45.99;101418.47;16146938;19;129416;-58
2022/06/27 07:13:23;;;;;;;14.43;4.78;;;;;;;22.27;46.29;101448.28;16148168;19;129506;-58
2022/06/27 07:18:46;;;;;;;7.68;4.15;;;;;;;22.28;45.93;101446.34;16142833;19;129892;-58
2022/06/27 07:24:09;;;;;;;7.50;4.40;;;;;;;22.26;46.08;101441.03;16143694;19;130184;-56
2022/06/27 07:29:32;;;;;;;5.68;3.67;;;;;;;22.28;46.07;101465.84;16142332;19;129544;-52
2022/06/27 07:34:54;;;;;;;8.93;3.85;;;;;;;22.28;46.06;101477.00;16143131;19;130904;-57
2022/06/27 07:40:20;;;;;;;10.90;4.18;;;;;;;22.29;46.05;101481.47;16141191;19;130034;-54
2022/06/27 07:45:43;;;;;;;7.53;3.22;;;;;;;22.31;46.33;101467.31;16138187;19;129924;-55
2022/06/27 07:51:05;;;;;;;13.20;4.25;;;;;;;22.31;46.18;101465.34;16133352;19;130281;-58
2022/06/27 07:56:27;;;;;;;4.22;3.47;;;;;;;22.33;46.05;101471.50;16132195;19;130152;-57
2022/06/27 08:02:09;;;;;;;8.55;3.83;;;;;;;22.35;46.30;101469.31;16138711;19;130974;-56
2022/06/27 08:07:31;;;;;;;8.05;3.85;;;;;;;22.35;46.32;101460.09;16136141;19;129770;-52
2022/06/27 08:12:53;;;;;;;8.43;3.90;;;;;;;22.35;46.00;101480.47;16129231;19;130373;-57
2022/06/27 08:18:16;;;;;;;6.22;3.33;;;;;;;22.35;46.24;101522.28;16105575;19;129617;-58
2022/06/27 08:23:38;;;;;;;10.15;3.80;;;;;;;22.36;46.24;101512.81;16131052;19;130390;-61
2022/06/27 08:29:02;;;;;;;8.63;3.65;;;;;;;22.36;46.00;101501.66;16143071;19;129421;-61
2022/06/27 08:34:23;;;;;;;8.35;3.35;;;;;;;22.36;46.34;101507.22;16139161;19;129474;-60
2022/06/27 08:39:45;;;;;;;8.80;3.13;;;;;;;22.37;45.90;101520.06;16137695;19;129147;-63
2022/06/27 08:45:08;;;;;;;7.15;3.33;;;;;;;22.39;45.60;101531.81;16139373;19;129291;-65
2022/06/27 08:50:34;;;;;;;7.90;3.10;;;;;;;22.39;45.92;101525.38;16142319;19;129364;-60
2022/06/27 08:55:58;;;;;;;10.70;3.40;;;;;;;22.40;45.92;101508.38;16136747;19;130232;-61
2022/06/27 09:01:23;;;;;;;7.07;3.25;;;;;;;22.42;45.62;101511.75;16137381;19;129507;-61
2022/06/27 09:06:45;;;;;;;11.20;3.08;;;;;;;22.41;45.91;101532.38;16138294;19;130023;-61
2022/06/27 09:12:09;;;;;;;9.95;3.55;;;;;;;22.41;45.71;101526.81;16138761;19;130013;-61
2022/06/27 09:17:31;;;;;;;6.05;2.80;;;;;;;22.41;45.76;101521.22;16134489;19;129767;-61
2022/06/27 09:22:53;;;;;;;5.97;3.00;;;;;;;22.42;46.21;101514.56;16139465;19;129414;-61
2022/06/27 09:28:15;;;;;;;11.68;2.70;;;;;;;22.43;46.29;101519.03;16135370;19;129595;-65
2022/06/27 09:33:40;;;;;;;11.20;3.03;;;;;;;22.43;46.34;101507.88;16137160;19;130118;-64
2022/06/27 09:39:04;;;;;;;10.52;3.15;;;;;;;22.43;46.66;101496.72;16128729;19;131580;-64
2022/06/27 09:44:33;;;;;;;5.65;2.88;;;;;;;22.46;46.94;101509.31;16136203;19;129775;-61
2022/06/27 09:49:59;;;;;;;14.77;3.17;;;;;;;22.46;46.90;101514.03;16133601;19;130310;-61
2022/06/27 09:55:23;;;;;;;14.77;3.17;;;;;;;22.44;47.13;101520.72;16131690;19;129531;-64
2022/06/27 10:00:46;;;;;;;6.70;2.45;;;;;;;22.43;47.37;101516.25;16129589;19;130413;-64
2022/06/27 10:06:10;;;;;;;11.43;2.47;;;;;;;22.43;47.05;101521.81;16131654;19;129899;-63
2022/06/27 10:11:32;;;;;;;11.15;2.13;;;;;;;22.41;46.93;101534.34;16128773;19;129675;-67
2022/06/27 10:16:55;;;;;;;13.30;2.10;;;;;;;22.40;46.91;101541.84;16131495;19;129862;-68
2022/06/27 10:22:25;;;;;;;10.15;2.30;;;;;;;22.41;47.79;101549.09;16133567;19;129136;-68
2022/06/27 10:27:49;;;;;;;12.15;2.30;;;;;;;22.36;47.68;101548.19;16134323;19;129368;-68
2022/06/27 10:33:26;;;;;;;6.85;2.45;;;;;;;22.33;47.80;101551.50;16136231;19;130115;-68
2022/06/27 10:38:50;;;;;;;5.30;2.30;;;;;;;22.28;47.99;101552.25;16132118;19;129170;-69
2022/06/27 10:44:29;;;;;;;6.88;2.85;;;;;;;22.25;48.24;101545.25;16130907;19;129597;-69
2022/06/27 10:50:10;;;;;;;7.10;2.90;;;;;;;22.23;48.13;101552.19;16135115;19;130246;-69
2022/06/27 10:55:38;;;;;;;5.53;2.42;;;;;;;22.20;48.75;101538.72;16133973;19;129322;-68
2022/06/27 11:01:14;;;;;;;7.13;2.70;;;;;;;22.19;48.43;101535.13;16127177;19;129764;-68
2022/06/27 11:06:36;;;;;;;5.68;2.33;;;;;;;22.17;48.43;101572.69;16131447;19;130512;-69
2022/06/27 11:11:59;;;;;;;8.75;2.67;;;;;;;22.09;48.39;101585.94;16132981;19;129164;-70
2022/06/27 11:17:38;;;;;;;6.82;2.00;;;;;;;22.06;48.59;101569.72;16125997;19;129671;-69
2022/06/27 11:23:01;;;;;;;10.05;2.30;;;;;;;22.05;48.58;101586.72;16143325;19;129244;-70
2022/06/27 11:34:03;;;;;;;6.18;1.98;;;;;;;22.06;48.86;101613.50;16139840;19;131064;-64
2022/06/27 11:39:32;;;;;;;5.18;2.00;;;;;;;22.08;48.63;101591.78;16145409;19;129985;-63
2022/06/27 11:45:06;;;;;;;8.63;2.10;;;;;;;22.10;49.19;101596.00;16149003;19;129530;-63
2022/06/27 11:50:32;;;;;;;6.53;2.28;;;;;;;22.11;49.09;101622.78;16157624;19;129364;-62
2022/06/27 11:55:54;;;;;;;8.43;1.77;;;;;;;22.15;49.21;101642.63;16139409;19;129078;-67
2022/06/27 12:01:16;;;;;;;4.18;1.52;;;;;;;22.16;49.18;101649.88;16139339;19;130319;-68
2022/06/27 12:06:47;;;;;;;9.15;2.22;;;;;;;22.18;49.32;101644.91;16146286;19;129502;-63
2022/06/27 12:12:16;;;;;;;3.97;1.58;;;;;;;22.17;49.54;101664.66;16146228;19;129383;-62
2022/06/27 12:17:39;;;;;;;6.78;1.75;;;;;;;22.20;49.42;101673.38;16144504;19;130655;-63
2022/06/27 12:23:01;;;;;;;7.70;2.00;;;;;;;22.20;49.43;101678.94;16147632;19;129178;-63
2022/06/27 12:28:24;;;;;;;5.13;1.60;;;;;;;22.21;49.57;101668.66;16144324;19;130202;-64
2022/06/27 12:33:45;;;;;;;4.85;1.52;;;;;;;22.21;49.54;101652.78;16142682;19;129388;-62
2022/06/27 12:39:08;;;;;;;5.38;1.80;;;;;;;22.26;49.79;101643.66;16143981;19;129316;-66
2022/06/27 12:44:30;;;;;;;4.65;1.50;;;;;;;22.29;49.63;101662.66;16141788;19;129932;-65
2022/06/27 12:49:52;;;;;;;4.47;1.55;;;;;;;22.30;49.41;101708.94;16143563;19;128939;-65
2022/06/27 12:55:13;;;;;;;5.45;1.63;;;;;;;22.30;49.37;101736.81;16141625;19;129843;-65
2022/06/27 13:00:35;;;;;;;5.03;1.48;;;;;;;22.31;49.44;101724.56;16132947;19;129154;-65
2022/06/27 13:05:57;;;;;;;5.03;1.48;;;;;;;22.30;49.46;101741.56;16143618;19;129523;-66
2022/06/27 13:11:19;;;;;;;5.45;1.30;;;;;;;22.27;49.52;101743.75;16142143;19;129578;-65
2022/06/27 13:16:42;;;;;;;5.85;1.17;;;;;;;22.27;49.42;101749.31;16143070;19;129319;-67
2022/06/27 13:22:04;;;;;;;4.18;1.23;;;;;;;22.25;49.23;101748.72;16141221;19;129033;-63
2022/06/27 13:27:26;;;;;;;7.03;1.48;;;;;;;22.23;49.34;101733.34;16142436;19;129597;-63
2022/06/27 13:32:48;;;;;;;4.57;1.38;;;;;;;22.23;48.94;101750.09;16138850;19;129900;-64
2022/06/27 13:38:10;;;;;;;6.82;1.20;;;;;;;22.26;48.60;101738.44;16127938;19;130248;-62
2022/06/27 13:43:32;;;;;;;7.25;1.10;;;;;;;22.30;48.47;101761.06;16129920;19;130189;-63
2022/06/27 13:48:53;;;;;;;4.03;1.13;;;;;;;22.35;48.52;101761.16;16134535;19;129246;-63
2022/06/27 13:54:15;;;;;;;4.35;1.00;;;;;;;22.38;48.78;101761.50;16140007;19;129286;-63
2022/06/27 13:59:37;;;;;;;3.72;0.95;;;;;;;22.40;48.64;101742.56;16140117;19;129312;-68
2022/06/27 14:05:00;;;;;;;3.10;1.00;;;;;;;22.43;48.81;101747.66;16142257;19;129903;-63
2022/06/27 14:10:23;;;;;;;6.30;0.80;;;;;;;22.47;48.31;101742.41;16147776;19;129405;-68
2022/06/27 14:15:45;;;;;;;6.45;1.08;;;;;;;22.52;48.52;101747.25;16140102;19;129188;-70
2022/06/27 14:21:07;;;;;;;6.07;1.00;;;;;;;22.55;48.54;101752.28;16134530;19;129559;-61
2022/06/27 14:26:29;;;;;;;8.73;1.17;;;;;;;22.63;48.06;101762.19;16136150;19;129564;-67
2022/06/27 14:31:51;;;;;;;7.90;1.25;;;;;;;22.67;48.04;101757.81;16139249;19;129606;-72
2022/06/27 14:37:13;;;;;;;3.15;1.10;;;;;;;22.69;48.08;101773.16;16137164;19;129898;-67
2022/06/27 14:42:35;;;;;;;2.30;0.70;;;;;;;22.72;48.15;101781.03;16141857;19;129638;-75
2022/06/27 14:47:57;;;;;;;4.53;0.80;;;;;;;22.76;48.44;101780.53;16143668;19;131607;-64
2022/06/27 14:53:19;;;;;;;4.63;0.82;;;;;;;22.77;48.37;101774.69;16140013;19;129601;-65
2022/06/27 14:58:41;;;;;;;7.53;0.88;;;;;;;22.79;48.29;101788.38;16147061;19;132214;-65
2022/06/27 15:04:04;;;;;;;2.30;0.75;;;;;;;22.78;48.81;101803.44;16143447;19;129043;-65
2022/06/27 15:09:26;;;;;;;3.13;0.60;;;;;;;22.78;48.45;101797.84;16143411;19;129624;-67
2022/06/27 15:14:47;;;;;;;3.53;0.60;;;;;;;22.76;48.35;101806.47;16143018;19;129523;-66
2022/06/27 15:20:13;;;;;;;2.50;0.80;;;;;;;22.78;48.41;101803.44;16140648;19;129318;-66
2022/06/27 15:25:35;;;;;;;3.90;0.90;;;;;;;22.77;48.18;101807.34;16145972;19;130049;-65
2022/06/27 15:30:57;;;;;;;2.33;0.80;;;;;;;22.80;48.07;101815.19;16144088;19;128900;-66
2022/06/27 15:36:19;;;;;;;4.43;1.05;;;;;;;22.77;47.95;101813.75;16139399;19;130450;-66
2022/06/27 15:41:44;;;;;;;4.57;0.70;;;;;;;22.78;48.44;101822.94;16138184;19;129895;-66
2022/06/27 15:47:12;;;;;;;4.63;0.80;;;;;;;22.80;48.12;101823.56;16143527;19;130380;-66
2022/06/27 15:52:36;;;;;;;5.32;0.77;;;;;;;22.86;48.68;101816.97;16139770;19;129673;-64
2022/06/27 15:57:59;;;;;;;2.67;1.08;;;;;;;22.92;48.48;101809.56;16136431;19;129425;-65
2022/06/27 16:03:22;;;;;;;3.88;1.10;;;;;;;22.96;48.71;101810.72;16136033;19;129606;-65
2022/06/27 16:08:44;;;;;;;2.17;0.90;;;;;;;22.98;48.38;101806.59;16145367;19;129347;-65
2022/06/27 16:14:06;;;;;;;1.40;0.80;;;;;;;22.97;48.66;101813.28;16144286;19;129881;-65
2022/06/27 16:19:28;;;;;;;7.53;0.80;;;;;;;23.00;48.43;101817.50;16142611;19;130292;-65
2022/06/27 16:24:50;;;;;;;2.08;0.95;;;;;;;23.01;48.93;101806.09;16141353;19;128949;-66
2022/06/27 16:31:39;;;;;;;1.70;0.50;;;;;;;23.03;48.75;101797.44;16134460;19;129715;-66
2022/06/27 16:35:55;;;;;;;3.72;0.82;;;;;;;23.02;48.73;101795.75;16138573;19;129467;-66
2022/06/27 16:41:17;;;;;;;3.50;0.70;;;;;;;23.01;48.62;101780.97;16136358;19;129382;-66
2022/06/27 16:46:38;;;;;;;2.15;0.70;;;;;;;22.96;48.25;101796.78;16135685;19;132809;-66
2022/06/27 16:52:01;;;;;;;8.25;1.05;;;;;;;22.93;48.22;101805.66;16138709;19;129578;-66
2022/06/27 16:57:23;;;;;;;6.20;1.10;;;;;;;22.94;47.74;101797.03;16143416;19;131195;-65
2022/06/27 17:02:45;;;;;;;6.40;1.00;;;;;;;22.95;48.32;101798.72;16136833;19;129323;-66
2022/06/27 17:08:08;;;;;;;6.53;0.60;;;;;;;22.95;48.00;101798.72;16136637;19;130860;-67
2022/06/27 17:13:30;;;;;;;5.78;0.70;;;;;;;22.98;48.03;101798.22;16140756;19;129766;-67
2022/06/27 17:18:52;;;;;;;6.82;0.98;;;;;;;22.99;48.06;101799.91;16139256;19;130260;-66
2022/06/27 17:24:14;;;;;;;4.88;0.73;;;;;;;22.98;48.03;101806.59;16137187;19;129856;-67
2022/06/27 17:29:36;;;;;;;3.92;0.80;;;;;;;22.99;48.02;101811.09;16135350;19;130295;-67
2022/06/27 17:34:58;;;;;;;7.38;0.95;;;;;;;22.97;48.22;101816.06;16135058;19;129051;-66
2022/06/27 17:40:20;;;;;;;10.75;0.65;;;;;;;22.96;48.33;101817.16;16137475;19;129150;-66
2022/06/27 17:45:42;;;;;;;10.77;1.20;;;;;;;22.93;48.20;101820.44;16132465;19;129700;-65
2022/06/27 17:51:08;;;;;;;12.07;0.85;;;;;;;22.92;48.49;101820.72;16133942;19;129450;-65
2022/06/27 17:56:31;;;;;;;3.80;0.77;;;;;;;22.89;48.99;101828.47;16137441;19;129243;-67
2022/06/27 18:01:55;;;;;;;3.73;0.77;;;;;;;22.87;49.20;101827.03;16127964;19;129582;-66
2022/06/27 18:07:30;;;;;;;7.50;1.07;;;;;;;22.85;49.28;101829.22;16134465;19;129225;-66
2022/06/27 18:12:52;;;;;;;4.80;0.80;;;;;;;22.85;49.26;101834.81;16134960;19;129652;-66
2022/06/27 18:18:14;;;;;;;2.22;0.52;;;;;;;22.83;49.50;101840.63;16137396;19;129906;-66
2022/06/27 18:23:37;;;;;;;2.50;0.70;;;;;;;22.82;49.37;101835.31;16132476;19;129477;-67
2022/06/27 18:28:59;;;;;;;12.10;0.80;;;;;;;22.80;49.00;101845.88;16139816;19;129659;-67
2022/06/27 18:34:21;;;;;;;2.78;0.93;;;;;;;22.76;49.35;101845.53;16147710;19;130103;-67
2022/06/27 18:39:42;;;;;;;4.13;0.60;;;;;;;22.74;49.32;101848.59;16145133;19;129879;-66
2022/06/27 18:45:05;;;;;;;2.25;0.55;;;;;;;22.74;49.30;101848.59;16148523;19;129726;-66
2022/06/27 18:50:27;;;;;;;1.85;0.50;;;;;;;22.72;49.24;101859.16;16149107;19;129421;-66
2022/06/27 18:55:51;;;;;;;1.58;0.57;;;;;;;22.70;49.06;101866.91;16149100;19;129243;-66
2022/06/27 19:01:13;;;;;;;3.67;0.70;;;;;;;22.69;49.30;101873.59;16144747;19;129455;-66
2022/06/27 19:06:34;;;;;;;7.82;0.85;;;;;;;22.65;49.38;101872.38;16147172;19;129255;-58
2022/06/27 19:11:56;;;;;;;9.80;1.23;;;;;;;22.63;49.39;101879.31;16144448;19;130370;-60
2022/06/27 19:17:18;;;;;;;7.55;0.88;;;;;;;22.63;49.06;101882.97;16145188;19;130663;-65
2022/06/27 19:22:40;;;;;;;16.98;1.10;;;;;;;22.63;49.53;101882.13;16139982;19;129631;-63
2022/06/27 19:28:03;;;;;;;8.75;1.02;;;;;;;22.61;49.60;101887.94;16140380;19;129776;-63
2022/06/27 19:33:25;;;;;;;12.77;1.23;;;;;;;22.59;49.56;101895.72;16144426;19;130232;-63
2022/06/27 19:38:47;;;;;;;11.93;1.23;;;;;;;22.58;50.21;101896.81;16144819;19;130008;-63
2022/06/27 19:44:08;;;;;;;5.00;0.73;;;;;;;22.55;50.32;101900.97;16144323;19;129635;-64
2022/06/27 19:49:30;;;;;;;2.20;0.52;;;;;;;22.53;50.68;101903.13;16145208;19;129319;-63
2022/06/27 19:54:53;;;;;;;3.67;0.80;;;;;;;22.50;50.86;101919.53;16147002;19;130062;-63
2022/06/27 20:00:15;;;;;;;6.75;0.60;;;;;;;22.50;51.13;101919.53;16139840;19;129615;-63
2022/06/27 20:05:37;;;;;;;2.65;0.55;;;;;;;22.48;50.96;101922.53;16143470;19;131046;-63
2022/06/27 20:10:59;;;;;;;2.60;0.82;;;;;;;22.46;51.46;101927.56;16141229;19;130142;-63
2022/06/27 20:16:21;;;;;;;1.40;0.40;;;;;;;22.43;51.66;101936.41;16139138;19;129201;-63
2022/06/27 20:21:43;;;;;;;1.25;0.50;;;;;;;22.39;51.86;101941.63;16137161;19;129589;-63
2022/06/27 20:27:07;;;;;;;2.45;0.47;;;;;;;22.39;51.60;101938.84;16140495;19;129215;-63
2022/06/27 20:32:29;;;;;;;1.73;0.30;;;;;;;22.39;52.24;101946.34;16142335;19;130417;-63
2022/06/27 20:37:52;;;;;;;1.58;0.40;;;;;;;22.37;52.06;101954.97;16138790;19;129932;-63
2022/06/27 20:43:14;;;;;;;3.65;0.40;;;;;;;22.34;52.14;101949.88;16135203;19;130002;-63
2022/06/27 20:48:36;;;;;;;3.03;0.57;;;;;;;22.33;52.33;101958.50;16139524;19;129837;-63
2022/06/27 20:53:58;;;;;;;2.25;0.50;;;;;;;22.33;52.05;101958.50;16140527;19;130162;-63
2022/06/27 20:59:21;;;;;;;0.68;0.20;;;;;;;22.31;52.52;101961.53;16131669;19;129090;-63
2022/06/27 21:04:42;;;;;;;5.57;0.52;;;;;;;22.29;52.55;101966.50;16137294;19;129397;-63
2022/06/27 21:15:45;;;;;;;1.10;0.30;;;;;;;22.26;52.41;101969.78;16136932;19;129457;-63
2022/06/27 21:21:06;;;;;;;1.10;0.30;;;;;;;22.25;52.29;101968.09;16136380;19;132125;-63
2022/06/27 21:26:28;;;;;;;1.13;0.40;;;;;;;22.25;52.42;101968.09;16137843;19;129175;-64
2022/06/27 21:31:50;;;;;;;0.55;0.40;;;;;;;22.24;53.08;101974.75;16139223;19;130264;-64
2022/06/27 21:37:12;;;;;;;1.02;0.43;;;;;;;22.21;52.71;101970.53;16134733;19;129559;-64
2022/06/27 21:42:33;;;;;;;0.52;0.20;;;;;;;22.22;53.05;101977.78;16133742;19;129497;-64
2022/06/27 21:47:55;;;;;;;1.60;0.45;;;;;;;22.21;52.88;101984.47;16133857;19;129416;-63
2022/06/27 21:53:17;;;;;;;1.48;0.20;;;;;;;22.21;53.18;101986.38;16135898;19;130622;-63
2022/06/27 21:58:39;;;;;;;1.25;0.13;;;;;;;22.19;52.91;101985.75;16137289;19;129372;-63
2022/06/27 22:04:01;;;;;;;0.40;0.20;;;;;;;22.18;52.94;101995.19;16129633;19;130470;-63
2022/06/27 22:09:23;;;;;;;0.40;0.15;;;;;;;22.18;53.32;101995.19;16138105;19;129470;-63
2022/06/27 22:14:45;;;;;;;0.77;0.20;;;;;;;22.16;52.96;102002.97;16137503;19;129856;-64
2022/06/27 22:20:10;;;;;;;0.65;0.10;;;;;;;22.16;52.96;102002.97;16136078;19;128973;-64
2022/06/27 22:25:33;;;;;;;0.93;0.15;;;;;;;22.15;53.23;102012.44;16133146;19;128966;-64
2022/06/27 22:30:55;;;;;;;0.32;0.20;;;;;;;22.13;53.46;102010.75;16134742;19;130375;-64
2022/06/27 22:36:17;;;;;;;0.40;0.10;;;;;;;22.11;53.04;102018.50;16131801;19;129848;-64
2022/06/27 22:41:39;;;;;;;0.10;0.10;;;;;;;22.11;52.88;102018.50;16129514;19;130700;-64
2022/06/27 22:47:03;;;;;;;1.10;0.20;;;;;;;22.11;53.24;102024.06;16130479;19;130471;-64
2022/06/27 22:52:25;;;;;;;0.32;0.20;;;;;;;22.10;53.39;102022.38;16132184;19;131316;-64
2022/06/27 22:57:47;;;;;;;0.50;0.20;;;;;;;22.09;53.10;102019.84;16132395;19;129477;-64
2022/06/27 23:03:09;;;;;;;0.35;0.13;;;;;;;22.08;53.18;102018.13;16128050;19;129347;-64
2022/06/27 23:08:31;;;;;;;0.40;0.13;;;;;;;22.08;52.61;102016.19;16131563;19;128958;-64
2022/06/27 23:13:53;;;;;;;0.40;0.20;;;;;;;22.07;53.17;102014.47;16132716;19;129531;-64
2022/06/27 23:19:14;;;;;;;0.60;0.10;;;;;;;22.06;53.33;102014.75;16145623;19;129504;-64
2022/06/27 23:24:36;;;;;;;0.75;0.10;;;;;;;22.04;53.28;102017.75;16146056;19;131119;-64
2022/06/27 23:29:59;;;;;;;0.57;0.20;;;;;;;22.04;53.22;102019.69;16145736;19;129944;-64
2022/06/27 23:35:21;;;;;;;0.28;0.10;;;;;;;22.04;53.25;102025.28;16139040;19;130228;-64
2022/06/27 23:40:43;;;;;;;0.45;0.20;;;;;;;22.03;53.00;102015.22;16145107;19;129323;-64
2022/06/27 23:46:05;;;;;;;0.52;0.15;;;;;;;22.02;53.39;102024.66;16146013;19;129102;-64
2022/06/27 23:51:27;;;;;;;1.52;0.17;;;;;;;22.02;52.80;102030.25;16142219;19;130376;-63
2022/06/27 23:56:49;;;;;;;2.22;0.20;;;;;;;22.01;52.73;102017.41;16145315;19;130689;-64
